Flight Track Log - Related Links

Times and Time Zones

All times are in EDT time to prevent confusion due to time zone crossing. See the ACA271 flight status page for this flight to view local times or setup timezone preferences in your user account.

Time Position Orientation Groundspeed Altitude Reporting Facility
EDT Latitude Longitude Course Direction KTS MPH feet Rate Location/Type
Mon 09:17:05 PM 43.6833 -79.6167 303° West 50 58 500  Level Toronto Center
Mon 09:18:05 PM 43.6500 -79.6500 216° Southwest 150 173 1,900 1,500 Climbing Toronto Center
Mon 09:19:05 PM 43.6333 -79.7333 255° West 210 242 3,500 1,900 Climbing Toronto Center
Mon 09:20:00 PM 43.8938 -80.1167 North  Level FlightAware Approximate
Mon 09:20:05 PM 43.6167 -79.8000 251° West 260 299 5,700  Level Toronto Center
Mon 09:21:00 PM 43.9460 -80.2421 305° West  Level FlightAware Approximate
Mon 09:21:05 PM 43.6833 -79.8667 324° Northwest 270 311 6,700  Level Toronto Center
Mon 09:22:00 PM 44.0069 -80.3679 303° West  Level FlightAware Approximate
Mon 09:22:05 PM 43.7333 -79.9333 316° Northwest 280 322 8,800  Level Toronto Center
Mon 09:23:00 PM 44.0670 -80.4947 303° West  Level FlightAware Approximate
Mon 09:23:05 PM 43.8000 -80.0333 313° West 290 334 11,800  Level Toronto Center
Mon 09:24:05 PM 43.8833 -80.1000 330° Northwest 330 380 13,100 1,900 Climbing Toronto Center
Mon 09:25:05 PM 43.9500 -80.2167 308° West 360 414 15,600 2,350 Climbing Toronto Center
Mon 09:26:05 PM 44.0167 -80.3333 308° West 380 437 17,800 2,000 Climbing Toronto Center
Mon 09:27:05 PM 44.0833 -80.4167 318° Northwest 380 437 19,600 2,000 Climbing Toronto Center
Mon 09:28:05 PM 44.1667 -80.5333 315° West 390 449 21,800 2,000 Climbing Toronto Center
Mon 09:29:05 PM 44.2333 -80.6500 309° West 400 460 23,600 1,600 Climbing Toronto Center
Mon 09:30:05 PM 44.3167 -80.7667 315° West 400 460 25,000 1,300 Climbing Toronto Center
Mon 09:31:05 PM 44.3667 -80.9000 298° West 420 483 26,200 1,450 Climbing Toronto Center
Mon 09:32:05 PM 44.4500 -81.0333 311° West 420 483 27,900 1,750 Climbing Toronto Center
Mon 09:33:05 PM 44.5333 -81.1500 315° West 410 472 29,700 1,700 Climbing Toronto Center
Mon 09:34:05 PM 44.6000 -81.2667 309° West 400 460 31,300 1,350 Climbing Toronto Center
Mon 09:35:05 PM 44.6667 -81.3667 313° West 400 460 32,400 1,200 Climbing Toronto Center
Mon 09:36:05 PM 44.7500 -81.4833 315° West 390 449 33,700 1,300 Climbing Toronto Center
Mon 09:37:05 PM 44.8167 -81.6000 309° West 390 449 35,000 1,250 Climbing Toronto Center
Mon 09:38:05 PM 44.8833 -81.7333 305° West 380 437 36,200 1,000 Climbing Toronto Center
Mon 09:39:05 PM 44.9500 -81.8167 319° Northwest 370 426 37,000 550 Climbing Toronto Center
Mon 09:40:05 PM 45.0333 -81.9500 312° West 370 426 37,300 350 Climbing Toronto Center
Mon 09:41:05 PM 45.0833 -82.0667 301° West 370 426 37,700 300 Climbing Toronto Center
Mon 09:42:05 PM 45.1500 -82.1667 313° West 380 437 37,900 150 Climbing Toronto Center
Mon 09:43:05 PM 45.2167 -82.2833 309° West 380 437 38,000 50 Climbing Toronto Center
Mon 09:44:05 PM 45.3000 -82.4000 315° West 390 449 38,000  Level Toronto Center
Mon 09:45:05 PM 45.3667 -82.5000 314° West 390 449 38,000  Level Toronto Center
Mon 09:46:05 PM 45.4333 -82.6333 306° West 390 449 38,000  Level Toronto Center
Mon 09:47:05 PM 45.5000 -82.7500 309° West 390 449 38,000  Level Toronto Center
Mon 09:48:05 PM 45.5667 -82.8500 314° West 380 437 38,000  Level Toronto Center
Mon 09:49:05 PM 45.6333 -82.9667 309° West 380 437 38,000  Level Toronto Center
Mon 09:50:05 PM 45.7167 -83.1000 312° West 380 437 38,000  Level Toronto Center
Mon 09:51:05 PM 45.7833 -83.2167 309° West 390 449 38,000  Level Toronto Center
Mon 09:52:05 PM 45.8333 -83.3500 298° West 390 449 38,000  Level Toronto Center
Mon 09:53:05 PM 45.9167 -83.4667 316° Northwest 390 449 38,000  Level Toronto Center
Mon 09:54:05 PM 45.9833 -83.5667 314° West 390 449 38,000  Level Toronto Center
Mon 09:55:05 PM 46.0500 -83.7000 306° West 390 449 38,000  Level Toronto Center
Mon 09:56:05 PM 46.1167 -83.8167 310° West 390 449 38,000  Level Toronto Center
Mon 09:57:05 PM 46.1833 -83.9500 306° West 390 449 38,000  Level Toronto Center
Mon 09:58:05 PM 46.2667 -84.0667 316° Northwest 390 449 38,000  Level Toronto Center
Mon 09:59:05 PM 46.3333 -84.1667 314° West 390 449 38,000  Level Toronto Center
Mon 10:00:05 PM 46.3833 -84.3000 299° West 390 449 38,000  Level Toronto Center
Mon 10:01:05 PM 46.4500 -84.4167 310° West 380 437 38,000  Level Toronto Center
Mon 10:02:05 PM 46.5000 -84.5667 296° West 380 437 38,000  Level Toronto Center
Mon 10:03:05 PM 46.5500 -84.7000 299° West 390 449 38,000  Level Toronto Center
Mon 10:04:05 PM 46.6000 -84.8333 299° West 390 449 38,000  Level Toronto Center
Mon 10:05:05 PM 46.6667 -84.9833 303° West 390 449 38,000  Level Toronto Center
Mon 10:06:05 PM 46.7167 -85.1333 296° West 400 460 38,000  Level Toronto Center
Mon 10:07:05 PM 46.7667 -85.2500 302° West 400 460 38,000  Level Toronto Center
Mon 10:08:05 PM 46.8167 -85.4000 296° West 410 472 38,000  Level Toronto Center
Mon 10:09:05 PM 46.8833 -85.5667 300° West 410 472 38,000  Level Toronto Center
Mon 10:10:05 PM 46.9333 -85.7167 296° West 420 483 38,000  Level Toronto Center
Mon 10:11:05 PM 46.9833 -85.8333 302° West 420 483 38,000  Level Toronto Center
Mon 10:12:05 PM 47.0500 -86.0000 300° West 420 483 38,000  Level Toronto Center
Mon 10:13:05 PM 47.1000 -86.1500 296° West 410 472 38,000  Level Toronto Center
Mon 10:14:05 PM 47.1500 -86.3000 296° West 410 472 38,000  Level Toronto Center
Mon 10:15:05 PM 47.2000 -86.4500 296° West 420 483 38,000  Level Toronto Center
Mon 10:16:05 PM 47.2667 -86.5833 306° West 420 483 38,000  Level Toronto Center
Mon 10:17:05 PM 47.3167 -86.7333 296° West 420 483 38,000  Level Toronto Center
Mon 10:18:05 PM 47.3667 -86.9000 294° West 420 483 38,000  Level Toronto Center
Mon 10:19:05 PM 47.4333 -87.0500 303° West 420 483 38,000  Level Toronto Center
Mon 10:20:05 PM 47.4833 -87.2167 294° West 420 483 38,000  Level Toronto Center
Mon 10:21:05 PM 47.5333 -87.3667 296° West 430 495 38,000  Level Toronto Center
Mon 10:22:05 PM 47.5833 -87.5167 296° West 430 495 38,000  Level Toronto Center
Mon 10:23:05 PM 47.6333 -87.6833 294° West 430 495 38,000  Level Toronto Center
Mon 10:24:05 PM 47.7000 -87.8333 303° West 430 495 38,000  Level Toronto Center
Mon 10:25:05 PM 47.7500 -88.0000 294° West 420 483 38,000  Level Toronto Center
Mon 10:26:05 PM 47.8167 -88.1500 304° West 420 483 38,000  Level Toronto Center
Mon 10:27:11 PM 47.8667 -88.2667 303° West 420 483 38,000  Level Winnipeg Center
Mon 10:28:11 PM 47.9000 -88.4000 290° West 420 483 38,000  Level Winnipeg Center
Mon 10:29:11 PM 47.9500 -88.5667 294° West 430 495 38,000  Level Winnipeg Center
Mon 10:30:11 PM 48.0167 -88.7333 301° West 420 483 38,000  Level Winnipeg Center
Mon 10:31:11 PM 48.0667 -88.8833 297° West 430 495 38,000  Level Winnipeg Center
Mon 10:32:11 PM 48.1167 -89.0500 294° West 430 495 38,000  Level Winnipeg Center
Mon 10:33:11 PM 48.1667 -89.2167 294° West 430 495 38,000  Level Winnipeg Center
Mon 10:34:11 PM 48.2333 -89.3833 301° West 430 495 38,000  Level Winnipeg Center
Mon 10:35:11 PM 48.2667 -89.5333 289° West 420 483 38,000  Level Winnipeg Center
Mon 10:36:11 PM 48.3167 -89.7000 294° West 420 483 38,000  Level Winnipeg Center
Mon 10:37:11 PM 48.3667 -89.8667 294° West 430 495 38,000  Level Winnipeg Center
Mon 10:38:11 PM 48.4000 -90.0333 287° West 430 495 38,000  Level Winnipeg Center
Mon 10:39:11 PM 48.4667 -90.2000 301° West 430 495 38,000  Level Winnipeg Center
Mon 10:40:11 PM 48.5167 -90.3500 297° West 440 506 38,000  Level Winnipeg Center
Mon 10:41:11 PM 48.5500 -90.5167 287° West 440 506 38,000  Level Winnipeg Center
Mon 10:42:11 PM 48.6000 -90.7167 291° West 450 518 38,000  Level Winnipeg Center
Mon 10:43:11 PM 48.6667 -90.8833 301° West 450 518 38,000  Level Winnipeg Center
Mon 10:44:11 PM 48.7000 -91.0667 285° West 450 518 38,000  Level Winnipeg Center
Mon 10:45:11 PM 48.7500 -91.2333 295° West 450 518 38,000  Level Winnipeg Center
Mon 10:46:11 PM 48.7833 -91.4000 287° West 450 518 38,000  Level Winnipeg Center
Mon 10:47:11 PM 48.8500 -91.5833 299° West 450 518 38,000  Level Winnipeg Center
Mon 10:48:11 PM 48.8833 -91.7500 287° West 450 518 38,000  Level Winnipeg Center
Mon 10:49:11 PM 48.9333 -91.9167 295° West 450 518 38,000  Level Winnipeg Center
Mon 10:50:11 PM 48.9833 -92.1000 293° West 450 518 38,000  Level Winnipeg Center
Mon 10:51:11 PM 49.0333 -92.3000 291° West 440 506 38,000  Level Winnipeg Center
Mon 10:52:11 PM 49.0667 -92.4500 289° West 440 506 38,000  Level Winnipeg Center
Mon 10:53:11 PM 49.1167 -92.6167 295° West 430 495 38,000  Level Winnipeg Center
Mon 10:54:11 PM 49.1500 -92.8000 286° West 420 483 38,000  Level Winnipeg Center
Mon 10:55:11 PM 49.2000 -92.9500 297° West 430 495 38,000  Level Winnipeg Center
Mon 10:56:11 PM 49.2500 -93.1500 291° West 440 506 38,000  Level Winnipeg Center
Mon 10:57:11 PM 49.2833 -93.3167 287° West 440 506 38,000  Level Winnipeg Center
Mon 10:58:11 PM 49.3167 -93.5000 286° West 440 506 38,000  Level Winnipeg Center
Mon 10:59:11 PM 49.3833 -93.6500 304° West 430 495 38,000  Level Winnipeg Center
Mon 11:00:11 PM 49.4167 -93.8333 286° West 430 495 38,000  Level Winnipeg Center
Mon 11:01:11 PM 49.4500 -94.0000 287° West 430 495 38,000  Level Winnipeg Center
Mon 11:02:11 PM 49.4667 -94.1833 278° West 420 483 38,000  Level Winnipeg Center
Mon 11:03:11 PM 49.4833 -94.3667 278° West 420 483 38,000 -100 Level Winnipeg Center
Mon 11:04:11 PM 49.4833 -94.5500 270° West 420 483 37,800 -600 Descending Winnipeg Center
Mon 11:05:11 PM 49.4833 -94.7333 270° West 420 483 36,800 -1,150 Descending Winnipeg Center
Mon 11:06:11 PM 49.5000 -94.9000 279° West 420 483 35,500 -1,400 Descending Winnipeg Center
Mon 11:07:11 PM 49.5000 -95.0833 270° West 440 506 34,000 -1,950 Descending Winnipeg Center
Mon 11:08:11 PM 49.5167 -95.2833 277° West 450 518 31,600 -2,500 Descending Winnipeg Center
Mon 11:09:11 PM 49.5167 -95.4667 270° West 430 495 29,000 -2,900 Descending Winnipeg Center
Mon 11:10:11 PM 49.5167 -95.6500 270° West 420 483 25,800 -3,100 Descending Winnipeg Center
Mon 11:11:11 PM 49.5333 -95.8333 278° West 420 483 22,800 -2,750 Descending Winnipeg Center
Mon 11:12:11 PM 49.5667 -95.9833 289° West 410 472 20,300 -2,650 Descending Winnipeg Center
Mon 11:13:11 PM 49.6333 -96.1667 299° West 400 460 17,500 -2,600 Descending Winnipeg Center
Mon 11:14:11 PM 49.6667 -96.3000 291° West 380 437 15,100 -2,400 Descending Winnipeg Center
Mon 11:15:11 PM 49.6833 -96.4500 280° West 350 403 12,700 -2,000 Descending Winnipeg Center
Mon 11:16:11 PM 49.7000 -96.5833 281° West 300 345 11,100 -1,700 Descending Winnipeg Center
Mon 11:17:11 PM 49.7000 -96.7000 270° West 290 334 9,300 -2,000 Descending Winnipeg Center
Mon 11:18:11 PM 49.7167 -96.8333 281° West 290 334 7,100 -1,850 Descending Winnipeg Center
Mon 11:19:11 PM 49.7167 -96.9333 270° West 280 322 5,600 -1,600 Descending Winnipeg Center
Mon 11:20:11 PM 49.7333 -97.0667 281° West 270 311 3,900 -1,000 Descending Winnipeg Center
Mon 11:21:11 PM 49.7500 -97.1667 284° West 250 288 3,600 -300 Descending Winnipeg Center
Mon 11:22:11 PM 49.7667 -97.2500 287° West 190 219 3,300 -650 Descending Winnipeg Center
Mon 11:23:11 PM 49.8167 -97.2500 360° North 140 161 2,300 -800 Descending Winnipeg Center
Mon 11:24:11 PM 49.8333 -97.2500 360° North 100 115 1,700 -650 Descending Winnipeg Center
Mon 11:25:11 PM 49.8667 -97.2333 18° North 110 127 1,000 -450 Descending Winnipeg Center
Mon 11:26:11 PM 49.9000 -97.2333 360° North 50 58 800 -200 Descending Winnipeg Center

Login

Don't have an account? Register now (free) for customized features, flight alerts, and more!